Time;durP1;ratioP1;P1;durP2;ratioP2;P2;SDS_P1;SDS_P2;PMS_P1;PMS_P2;Temp;Humidity;BMP_temperature;BMP_pressure;BME280_temperature;BME280_humidity;BME280_pressure;Samples;Min_cycle;Max_cycle;Signal;HPM_P1;HPM_P2
2023/09/05 00:02:17;;;;;;;1999.90;999.90;;;;;;;;;;5054051;28;20053;-81
2023/09/05 00:04:44;;;;;;;1999.90;999.90;;;;;;;;;;5054105;28;20059;-83
2023/09/05 00:07:11;;;;;;;1999.90;999.90;;;;;;;;;;5054332;28;20180;-81
2023/09/05 00:09:37;;;;;;;1999.90;999.90;;;;;;;;;;5052566;28;20080;-82
2023/09/05 00:12:07;;;;;;;1999.90;999.90;;;;;;;;;;5054378;28;20125;-84
2023/09/05 00:14:33;;;;;;;1999.90;999.90;;;;;;;;;;5052369;28;20048;-81
2023/09/05 00:17:00;;;;;;;1999.90;999.90;;;;;;;;;;5053177;28;20060;-81
2023/09/05 00:19:26;;;;;;;1999.90;999.90;;;;;;;;;;5054881;28;20636;-82
2023/09/05 00:21:53;;;;;;;1999.90;999.90;;;;;;;;;;5053105;28;20041;-81
2023/09/05 00:24:31;;;;;;;1999.90;999.90;;;;;;;;;;5052304;28;20046;-81
2023/09/05 00:26:58;;;;;;;1999.90;999.90;;;;;;;;;;5049065;28;20049;-80
2023/09/05 00:29:27;;;;;;;1999.90;999.90;;;;;;;;;;5054331;28;20053;-80
2023/09/05 00:31:54;;;;;;;1999.90;999.90;;;;;;;;;;5055548;28;20045;-81
2023/09/05 00:34:20;;;;;;;1999.90;999.90;;;;;;;;;;5051529;28;20059;-81
2023/09/05 00:36:48;;;;;;;1999.90;999.90;;;;;;;;;;5052921;28;20099;-81
2023/09/05 00:39:16;;;;;;;1999.90;999.90;;;;;;;;;;5053694;28;20048;-80
2023/09/05 00:41:42;;;;;;;1999.90;999.90;;;;;;;;;;5043917;28;20134;-82
2023/09/05 00:44:13;;;;;;;1999.90;999.90;;;;;;;;;;5051897;28;20045;-81
2023/09/05 00:46:42;;;;;;;1999.90;999.90;;;;;;;;;;5055485;28;20040;-81
2023/09/05 00:49:10;;;;;;;1999.90;999.90;;;;;;;;;;5054769;28;20053;-82
2023/09/05 00:51:45;;;;;;;1999.90;999.90;;;;;;;;;;5052155;28;20042;-81
2023/09/05 00:54:12;;;;;;;1999.90;999.90;;;;;;;;;;5055931;28;20119;-81
2023/09/05 00:56:39;;;;;;;1999.90;999.90;;;;;;;;;;5053915;28;20056;-81
2023/09/05 00:59:06;;;;;;;1999.90;999.90;;;;;;;;;;5052579;28;20059;-80
2023/09/05 01:10:10;;;;;;;1999.90;999.90;;;;;;;;;;5721754;22;20056;-87
2023/09/05 01:12:37;;;;;;;1999.90;999.90;;;;;;;;;;5073992;28;20477;-88
2023/09/05 01:15:11;;;;;;;1999.90;999.90;;;;;;;;;;5074856;28;20048;-87
2023/09/05 01:17:37;;;;;;;1999.90;999.90;;;;;;;;;;5074020;28;20045;-87
2023/09/05 01:20:08;;;;;;;1999.90;999.90;;;;;;;;;;5074594;28;20041;-88
2023/09/05 01:22:41;;;;;;;1999.90;999.90;;;;;;;;;;5094109;28;20123;-87
2023/09/05 01:25:11;;;;;;;1999.90;999.90;;;;;;;;;;5076421;28;20048;-83
2023/09/05 01:27:37;;;;;;;1999.90;999.90;;;;;;;;;;5073806;28;20377;-85
2023/09/05 01:30:05;;;;;;;1999.90;999.90;;;;;;;;;;5091174;28;20484;-85
2023/09/05 01:32:32;;;;;;;1999.90;999.90;;;;;;;;;;5093936;28;20077;-85
2023/09/05 01:34:59;;;;;;;1999.90;999.90;;;;;;;;;;5088761;28;20040;-86
2023/09/05 01:37:25;;;;;;;1999.90;999.90;;;;;;;;;;5091996;28;20051;-85
2023/09/05 01:39:52;;;;;;;1999.90;999.90;;;;;;;;;;5079993;28;20044;-85
2023/09/05 01:42:20;;;;;;;1999.90;999.90;;;;;;;;;;5074790;28;20051;-83
2023/09/05 01:44:46;;;;;;;1999.90;999.90;;;;;;;;;;5074752;28;20044;-84
2023/09/05 01:47:48;;;;;;;1999.90;999.90;;;;;;;;;;5085877;28;20391;-89
2023/09/05 01:50:49;;;;;;;1999.90;999.90;;;;;;;;;;5097476;28;20412;-87
2023/09/05 01:53:15;;;;;;;1999.90;999.90;;;;;;;;;;5088890;28;20044;-82
2023/09/05 01:55:42;;;;;;;1999.90;999.90;;;;;;;;;;5093518;28;20404;-82
2023/09/05 01:58:10;;;;;;;1999.90;999.90;;;;;;;;;;5093154;28;20400;-85
2023/09/05 02:00:37;;;;;;;1999.90;999.90;;;;;;;;;;5089395;28;20048;-86
2023/09/05 02:03:04;;;;;;;1999.90;999.90;;;;;;;;;;5097784;28;20184;-86
2023/09/05 02:05:30;;;;;;;1999.90;999.90;;;;;;;;;;5097375;28;20111;-86
2023/09/05 02:08:02;;;;;;;1999.90;999.90;;;;;;;;;;5085207;28;20049;-84
2023/09/05 02:10:29;;;;;;;1999.90;999.90;;;;;;;;;;5093691;28;20476;-85
2023/09/05 02:12:56;;;;;;;1999.90;999.90;;;;;;;;;;5082811;28;20576;-88
2023/09/05 02:16:18;;;;;;;1999.90;999.90;;;;;;;;;;5077518;28;20485;-89
2023/09/05 02:18:47;;;;;;;1999.90;999.90;;;;;;;;;;5089063;28;20044;-87
2023/09/05 02:21:14;;;;;;;1999.90;999.90;;;;;;;;;;5097149;28;20399;-88
2023/09/05 02:23:41;;;;;;;1999.90;999.90;;;;;;;;;;5087959;28;20056;-88
2023/09/05 02:26:08;;;;;;;1999.90;999.90;;;;;;;;;;5077594;28;20051;-88
2023/09/05 02:28:41;;;;;;;1999.90;999.90;;;;;;;;;;5081667;28;20087;-89
2023/09/05 02:31:08;;;;;;;1999.90;999.90;;;;;;;;;;5099729;28;20047;-86
2023/09/05 02:33:37;;;;;;;1999.90;999.90;;;;;;;;;;5097590;28;20488;-86
2023/09/05 02:36:15;;;;;;;1999.90;999.90;;;;;;;;;;5095304;28;20040;-89
2023/09/05 02:38:42;;;;;;;1999.90;999.90;;;;;;;;;;5076839;28;20552;-87
2023/09/05 02:41:14;;;;;;;1999.90;999.90;;;;;;;;;;5077380;28;20045;-88
2023/09/05 02:43:41;;;;;;;1999.90;999.90;;;;;;;;;;5082466;28;20058;-87
2023/09/05 02:46:08;;;;;;;1999.90;999.90;;;;;;;;;;5077829;28;20049;-88
2023/09/05 02:48:36;;;;;;;1999.90;999.90;;;;;;;;;;5086530;28;20056;-88
2023/09/05 02:51:04;;;;;;;1999.90;999.90;;;;;;;;;;5077058;28;20052;-88
2023/09/05 02:53:32;;;;;;;1999.90;999.90;;;;;;;;;;5085801;28;20048;-87
2023/09/05 02:55:59;;;;;;;1999.90;999.90;;;;;;;;;;5080892;28;20527;-87
2023/09/05 02:58:28;;;;;;;1999.90;999.90;;;;;;;;;;5076470;28;20132;-87
2023/09/05 03:00:59;;;;;;;1999.90;999.90;;;;;;;;;;5082409;28;20495;-85
2023/09/05 03:03:26;;;;;;;1999.90;999.90;;;;;;;;;;5076652;28;20041;-86
2023/09/05 03:05:52;;;;;;;1999.90;999.90;;;;;;;;;;5091073;28;20044;-87
2023/09/05 03:08:23;;;;;;;1999.90;999.90;;;;;;;;;;5097225;28;20044;-87
2023/09/05 03:10:52;;;;;;;1999.90;999.90;;;;;;;;;;5096433;28;20472;-86
2023/09/05 03:13:19;;;;;;;1999.90;999.90;;;;;;;;;;5096314;28;20050;-86
2023/09/05 03:15:45;;;;;;;1999.90;999.90;;;;;;;;;;5085742;28;20408;-88
2023/09/05 03:18:12;;;;;;;1999.90;999.90;;;;;;;;;;5096039;28;20048;-87
2023/09/05 03:24:00;;;;;;;1999.90;999.90;;;;;;;;;;5076069;28;20454;-87
2023/09/05 03:26:27;;;;;;;1999.90;999.90;;;;;;;;;;5075694;28;20044;-87
2023/09/05 03:28:54;;;;;;;1999.90;999.90;;;;;;;;;;5089930;28;20048;-87
2023/09/05 03:31:57;;;;;;;1999.90;999.90;;;;;;;;;;5096017;28;20140;-87
2023/09/05 03:34:23;;;;;;;1999.90;999.90;;;;;;;;;;5092398;28;20044;-87
2023/09/05 03:36:50;;;;;;;1999.90;999.90;;;;;;;;;;5081338;28;20052;-86
2023/09/05 03:39:46;;;;;;;1999.90;999.90;;;;;;;;;;5075576;28;20045;-87
2023/09/05 03:42:14;;;;;;;1999.90;999.90;;;;;;;;;;5087193;28;20044;-87
2023/09/05 03:44:41;;;;;;;1999.90;999.90;;;;;;;;;;5097096;28;20063;-87
2023/09/05 03:54:06;;;;;;;1999.90;999.90;;;;;;;;;;5095943;28;20058;-87
2023/09/05 03:56:33;;;;;;;1999.90;999.90;;;;;;;;;;5096321;28;20044;-86
2023/09/05 03:59:01;;;;;;;1999.90;999.90;;;;;;;;;;5078141;28;20048;-87
2023/09/05 04:01:28;;;;;;;1999.90;999.90;;;;;;;;;;5075357;28;20123;-88
2023/09/05 04:03:54;;;;;;;1999.90;999.90;;;;;;;;;;5076229;28;20072;-87
2023/09/05 04:06:21;;;;;;;1999.90;999.90;;;;;;;;;;5075779;28;20143;-85
2023/09/05 04:08:53;;;;;;;1999.90;999.90;;;;;;;;;;5081010;28;20044;-86
2023/09/05 04:11:19;;;;;;;1999.90;999.90;;;;;;;;;;5094738;28;20052;-86
2023/09/05 04:13:46;;;;;;;1999.90;999.90;;;;;;;;;;5095637;28;20047;-86
2023/09/05 04:16:20;;;;;;;1999.90;999.90;;;;;;;;;;5096130;28;20131;-86
2023/09/05 04:18:47;;;;;;;1999.90;999.90;;;;;;;;;;5095467;28;20048;-86
2023/09/05 04:21:14;;;;;;;1999.90;999.90;;;;;;;;;;5095518;28;20052;-86
2023/09/05 04:23:40;;;;;;;1999.90;999.90;;;;;;;;;;5095993;28;20128;-87
2023/09/05 04:26:07;;;;;;;1999.90;999.90;;;;;;;;;;5089894;28;20139;-86
2023/09/05 04:28:33;;;;;;;1999.90;999.90;;;;;;;;;;5082084;28;20047;-87
2023/09/05 04:31:04;;;;;;;1999.90;999.90;;;;;;;;;;5074835;28;20049;-87
2023/09/05 04:33:36;;;;;;;1999.90;999.90;;;;;;;;;;5074428;28;20044;-87
2023/09/05 04:36:14;;;;;;;1999.90;999.90;;;;;;;;;;5074820;28;20052;-87
2023/09/05 04:38:43;;;;;;;1999.90;999.90;;;;;;;;;;5075222;28;20051;-86
2023/09/05 04:41:10;;;;;;;1999.90;999.90;;;;;;;;;;5079210;28;20048;-84
2023/09/05 04:43:36;;;;;;;1999.90;999.90;;;;;;;;;;5080658;28;20048;-86
2023/09/05 04:46:05;;;;;;;1999.90;999.90;;;;;;;;;;5087348;28;20045;-84
2023/09/05 04:48:35;;;;;;;1999.90;999.90;;;;;;;;;;5094480;28;20101;-86
2023/09/05 04:54:35;;;;;;;1999.90;999.90;;;;;;;;;;5074180;28;20047;-86
2023/09/05 04:57:02;;;;;;;1999.90;999.90;;;;;;;;;;5073889;28;20044;-86
2023/09/05 04:59:29;;;;;;;1999.90;999.90;;;;;;;;;;5073680;28;20047;-83
2023/09/05 05:01:58;;;;;;;1999.90;999.90;;;;;;;;;;5078996;28;20154;-85
2023/09/05 05:04:26;;;;;;;1999.90;999.90;;;;;;;;;;5088847;28;20404;-87
2023/09/05 05:06:52;;;;;;;1999.90;999.90;;;;;;;;;;5087645;28;20044;-87
2023/09/05 05:09:19;;;;;;;1999.90;999.90;;;;;;;;;;5089584;28;20063;-85
2023/09/05 05:11:45;;;;;;;1999.90;999.90;;;;;;;;;;5080617;28;20055;-86
2023/09/05 05:14:12;;;;;;;1999.90;999.90;;;;;;;;;;5084377;28;20064;-86
2023/09/05 05:16:43;;;;;;;1999.90;999.90;;;;;;;;;;5089741;28;20489;-81
2023/09/05 05:19:11;;;;;;;1999.90;999.90;;;;;;;;;;5079960;28;20346;-82
2023/09/05 05:21:39;;;;;;;1999.90;999.90;;;;;;;;;;5086136;28;20051;-82
2023/09/05 05:24:06;;;;;;;1999.90;999.90;;;;;;;;;;5083715;28;20142;-81
2023/09/05 05:26:33;;;;;;;1999.90;999.90;;;;;;;;;;5088104;28;20048;-81
2023/09/05 05:28:59;;;;;;;1999.90;999.90;;;;;;;;;;5083856;28;20083;-82
2023/09/05 05:31:26;;;;;;;1999.90;999.90;;;;;;;;;;5083044;28;20040;-82
2023/09/05 05:33:54;;;;;;;1999.90;999.90;;;;;;;;;;5080715;28;20048;-85
2023/09/05 05:36:21;;;;;;;1999.90;999.90;;;;;;;;;;5076426;28;20052;-82
2023/09/05 05:38:49;;;;;;;1999.90;999.90;;;;;;;;;;5080478;28;20044;-81
2023/09/05 05:41:15;;;;;;;1999.90;999.90;;;;;;;;;;5080601;28;20112;-82
2023/09/05 05:43:42;;;;;;;1999.90;999.90;;;;;;;;;;5085985;28;20044;-79
2023/09/05 05:46:09;;;;;;;1999.90;999.90;;;;;;;;;;5083084;28;20071;-81
2023/09/05 05:48:35;;;;;;;1999.90;999.90;;;;;;;;;;5079083;28;20051;-83
2023/09/05 05:51:02;;;;;;;1999.90;999.90;;;;;;;;;;5084126;28;20048;-80
2023/09/05 05:53:29;;;;;;;1999.90;999.90;;;;;;;;;;5085374;28;20055;-81
2023/09/05 05:55:57;;;;;;;1999.90;999.90;;;;;;;;;;5082484;28;20055;-83
2023/09/05 05:58:23;;;;;;;1999.90;999.90;;;;;;;;;;5078739;28;20046;-82
2023/09/05 06:00:51;;;;;;;1999.90;999.90;;;;;;;;;;5085919;28;20047;-81
2023/09/05 06:03:18;;;;;;;1999.90;999.90;;;;;;;;;;5077841;28;20046;-80
2023/09/05 06:05:44;;;;;;;1999.90;999.90;;;;;;;;;;5083052;28;20047;-82
2023/09/05 06:08:11;;;;;;;1999.90;999.90;;;;;;;;;;5082126;28;20058;-79
2023/09/05 06:10:37;;;;;;;1999.90;999.90;;;;;;;;;;5079385;28;20063;-84
2023/09/05 06:13:06;;;;;;;1999.90;999.90;;;;;;;;;;5080560;28;20045;-82
2023/09/05 06:15:32;;;;;;;1999.90;999.90;;;;;;;;;;5080964;28;20052;-82
2023/09/05 06:17:59;;;;;;;1999.90;999.90;;;;;;;;;;5079526;28;20508;-82
2023/09/05 06:20:25;;;;;;;1999.90;999.90;;;;;;;;;;5076449;28;20401;-81
2023/09/05 06:22:52;;;;;;;1999.90;999.90;;;;;;;;;;5078641;28;20050;-82
2023/09/05 06:25:19;;;;;;;1999.90;999.90;;;;;;;;;;5082548;28;20053;-83
2023/09/05 06:27:45;;;;;;;1999.90;999.90;;;;;;;;;;5083546;28;20481;-79
2023/09/05 06:30:14;;;;;;;1999.90;999.90;;;;;;;;;;5083381;28;20044;-82
2023/09/05 06:32:41;;;;;;;1999.90;999.90;;;;;;;;;;5082050;28;20055;-80
2023/09/05 06:35:09;;;;;;;1999.90;999.90;;;;;;;;;;5085516;28;20484;-82
2023/09/05 06:37:36;;;;;;;1999.90;999.90;;;;;;;;;;5078144;28;20455;-82
2023/09/05 06:40:05;;;;;;;1999.90;999.90;;;;;;;;;;5080809;28;20531;-79
2023/09/05 06:42:31;;;;;;;1999.90;999.90;;;;;;;;;;5077696;28;20048;-80
2023/09/05 06:44:58;;;;;;;1999.90;999.90;;;;;;;;;;5082692;28;20052;-82
2023/09/05 06:47:25;;;;;;;1999.90;999.90;;;;;;;;;;5085879;28;20048;-79
2023/09/05 06:49:52;;;;;;;1999.90;999.90;;;;;;;;;;5086774;28;20047;-81
2023/09/05 06:52:24;;;;;;;1999.90;999.90;;;;;;;;;;5088596;28;20044;-80
2023/09/05 06:54:50;;;;;;;1999.90;999.90;;;;;;;;;;5084265;28;20044;-80
2023/09/05 06:57:17;;;;;;;1999.90;999.90;;;;;;;;;;5085348;28;20094;-83
2023/09/05 06:59:44;;;;;;;1999.90;999.90;;;;;;;;;;5083074;28;20036;-81
2023/09/05 07:02:11;;;;;;;1999.90;999.90;;;;;;;;;;5084860;28;20052;-83
2023/09/05 07:04:39;;;;;;;1999.90;999.90;;;;;;;;;;5078381;28;20043;-83
2023/09/05 07:07:05;;;;;;;1999.90;999.90;;;;;;;;;;5087245;28;20053;-82
2023/09/05 07:09:33;;;;;;;1999.90;999.90;;;;;;;;;;5083134;28;20055;-80
2023/09/05 07:12:00;;;;;;;1999.90;999.90;;;;;;;;;;5080140;28;20048;-78
2023/09/05 07:14:26;;;;;;;1999.90;999.90;;;;;;;;;;5081997;28;20040;-82
2023/09/05 07:16:53;;;;;;;1999.90;999.90;;;;;;;;;;5082053;28;20049;-81
2023/09/05 07:19:19;;;;;;;1999.90;999.90;;;;;;;;;;5086368;28;20044;-82
2023/09/05 07:21:47;;;;;;;1999.90;999.90;;;;;;;;;;5082352;28;20066;-79
2023/09/05 07:24:14;;;;;;;1999.90;999.90;;;;;;;;;;5085818;28;20055;-82
2023/09/05 07:26:41;;;;;;;1999.90;999.90;;;;;;;;;;5088548;28;20485;-82
2023/09/05 07:29:10;;;;;;;1999.90;999.90;;;;;;;;;;5081584;28;20055;-82
2023/09/05 07:31:36;;;;;;;1999.90;999.90;;;;;;;;;;5080433;28;20049;-81
2023/09/05 07:34:03;;;;;;;1999.90;999.90;;;;;;;;;;5084646;28;20453;-81
2023/09/05 07:36:31;;;;;;;1999.90;999.90;;;;;;;;;;5081568;28;20050;-82
2023/09/05 07:38:59;;;;;;;1999.90;999.90;;;;;;;;;;5080397;28;20055;-83
2023/09/05 07:41:25;;;;;;;1999.90;999.90;;;;;;;;;;5080087;28;20047;-85
2023/09/05 07:43:52;;;;;;;1999.90;999.90;;;;;;;;;;5086241;28;20040;-81
2023/09/05 07:46:18;;;;;;;1999.90;999.90;;;;;;;;;;5080968;28;20040;-82
2023/09/05 07:48:46;;;;;;;1999.90;999.90;;;;;;;;;;5080405;28;20048;-82
2023/09/05 07:51:12;;;;;;;1999.90;999.90;;;;;;;;;;5083112;28;20574;-84
2023/09/05 07:53:39;;;;;;;1999.90;999.90;;;;;;;;;;5085793;28;20044;-82
2023/09/05 07:56:08;;;;;;;1999.90;999.90;;;;;;;;;;5086756;28;20044;-82
2023/09/05 07:58:34;;;;;;;1999.90;999.90;;;;;;;;;;5076592;28;20558;-83
2023/09/05 08:01:00;;;;;;;1999.90;999.90;;;;;;;;;;5081904;28;20051;-81
2023/09/05 08:03:27;;;;;;;1999.90;999.90;;;;;;;;;;5086633;28;20040;-86
2023/09/05 08:05:54;;;;;;;1999.90;999.90;;;;;;;;;;5086539;28;20044;-83
2023/09/05 08:08:21;;;;;;;1999.90;999.90;;;;;;;;;;5084694;28;20488;-82
2023/09/05 08:10:47;;;;;;;1999.90;999.90;;;;;;;;;;5082403;28;20071;-85
2023/09/05 08:13:16;;;;;;;1999.90;999.90;;;;;;;;;;5085292;28;20044;-80
2023/09/05 08:15:43;;;;;;;1999.90;999.90;;;;;;;;;;5089622;28;20039;-83
2023/09/05 08:18:10;;;;;;;1999.90;999.90;;;;;;;;;;5081262;28;20199;-81
2023/09/05 08:20:37;;;;;;;1999.90;999.90;;;;;;;;;;5083463;28;20076;-81
2023/09/05 08:23:04;;;;;;;1999.90;999.90;;;;;;;;;;5074586;28;20055;-80
2023/09/05 08:25:30;;;;;;;1999.90;999.90;;;;;;;;;;5078003;28;20049;-81
2023/09/05 08:27:57;;;;;;;1999.90;999.90;;;;;;;;;;5083244;28;20506;-81
2023/09/05 08:30:25;;;;;;;1999.90;999.90;;;;;;;;;;5080789;28;20046;-82
2023/09/05 08:32:52;;;;;;;1999.90;999.90;;;;;;;;;;5081296;28;20044;-82
2023/09/05 08:35:19;;;;;;;1999.90;999.90;;;;;;;;;;5088801;28;20115;-82
2023/09/05 08:37:45;;;;;;;1999.90;999.90;;;;;;;;;;5081982;28;20122;-82
2023/09/05 08:40:13;;;;;;;1999.90;999.90;;;;;;;;;;5089372;28;20040;-82
2023/09/05 08:42:40;;;;;;;1999.90;999.90;;;;;;;;;;5087909;28;20064;-81
2023/09/05 08:45:11;;;;;;;1999.90;999.90;;;;;;;;;;5074939;28;20512;-82
2023/09/05 08:47:39;;;;;;;1999.90;999.90;;;;;;;;;;5082015;28;20076;-80
2023/09/05 08:50:08;;;;;;;1999.90;999.90;;;;;;;;;;5084905;28;20044;-81
2023/09/05 08:52:38;;;;;;;1999.90;999.90;;;;;;;;;;5082580;28;20052;-80
2023/09/05 08:55:07;;;;;;;1999.90;999.90;;;;;;;;;;5082827;28;20420;-83
2023/09/05 08:57:35;;;;;;;1999.90;999.90;;;;;;;;;;5079072;28;20040;-82
2023/09/05 09:00:05;;;;;;;1999.90;999.90;;;;;;;;;;5083152;28;20370;-83
2023/09/05 09:02:31;;;;;;;1999.90;999.90;;;;;;;;;;5080009;28;20049;-81
2023/09/05 09:04:59;;;;;;;1999.90;999.90;;;;;;;;;;5080020;28;20381;-83
2023/09/05 09:07:27;;;;;;;1999.90;999.90;;;;;;;;;;5085932;28;20404;-83
2023/09/05 09:09:54;;;;;;;1999.90;999.90;;;;;;;;;;5080864;28;20056;-82
2023/09/05 09:12:27;;;;;;;1999.90;999.90;;;;;;;;;;5076591;28;20499;-83
2023/09/05 09:14:54;;;;;;;1999.90;999.90;;;;;;;;;;5080253;28;20043;-83
2023/09/05 09:17:22;;;;;;;1999.90;999.90;;;;;;;;;;5079316;28;20054;-83
2023/09/05 09:19:49;;;;;;;1999.90;999.90;;;;;;;;;;5078968;28;20052;-83
2023/09/05 09:22:25;;;;;;;1999.90;999.90;;;;;;;;;;5082899;28;20055;-82
2023/09/05 09:24:52;;;;;;;1999.90;999.90;;;;;;;;;;5080741;28;20041;-81
2023/09/05 09:27:22;;;;;;;1999.90;999.90;;;;;;;;;;5077180;28;20048;-82
2023/09/05 09:29:53;;;;;;;1999.90;999.90;;;;;;;;;;5086287;28;20117;-81
2023/09/05 09:32:21;;;;;;;1999.90;999.90;;;;;;;;;;5083768;28;20680;-80
2023/09/05 09:34:47;;;;;;;1999.90;999.90;;;;;;;;;;5079194;28;20140;-81
2023/09/05 09:37:25;;;;;;;1999.90;999.90;;;;;;;;;;5084768;28;20047;-85
2023/09/05 09:39:58;;;;;;;1999.90;999.90;;;;;;;;;;5081898;28;20044;-83
2023/09/05 09:42:24;;;;;;;1999.90;999.90;;;;;;;;;;5077758;28;20127;-82
2023/09/05 09:44:52;;;;;;;1999.90;999.90;;;;;;;;;;5082435;28;20055;-83
2023/09/05 09:47:19;;;;;;;1999.90;999.90;;;;;;;;;;5083885;28;20040;-84
2023/09/05 09:49:49;;;;;;;1999.90;999.90;;;;;;;;;;5082004;28;20055;-83
2023/09/05 09:52:17;;;;;;;1999.90;999.90;;;;;;;;;;5082015;28;20047;-83
2023/09/05 09:54:46;;;;;;;1999.90;999.90;;;;;;;;;;5085057;28;20044;-82
2023/09/05 09:57:16;;;;;;;1999.90;999.90;;;;;;;;;;5080329;28;20044;-83
2023/09/05 09:59:46;;;;;;;1999.90;999.90;;;;;;;;;;5080468;28;20048;-83
2023/09/05 10:02:15;;;;;;;1999.90;999.90;;;;;;;;;;5081460;28;20059;-80
2023/09/05 10:04:42;;;;;;;1999.90;999.90;;;;;;;;;;5083871;28;20040;-81
2023/09/05 10:07:14;;;;;;;1999.90;999.90;;;;;;;;;;5083416;28;20052;-82
2023/09/05 10:09:42;;;;;;;1999.90;999.90;;;;;;;;;;5079319;28;20139;-81
2023/09/05 10:12:10;;;;;;;1999.90;999.90;;;;;;;;;;5088923;28;20040;-84
2023/09/05 10:14:38;;;;;;;1999.90;999.90;;;;;;;;;;5085938;28;20043;-81
2023/09/05 10:17:05;;;;;;;1999.90;999.90;;;;;;;;;;5085711;28;20055;-81
2023/09/05 10:19:34;;;;;;;1999.90;999.90;;;;;;;;;;5087926;28;20040;-83
2023/09/05 10:22:01;;;;;;;1999.90;999.90;;;;;;;;;;5083092;28;20056;-83
2023/09/05 10:24:29;;;;;;;1999.90;999.90;;;;;;;;;;5085988;28;20044;-81
2023/09/05 10:26:56;;;;;;;1999.90;999.90;;;;;;;;;;5086398;28;20052;-83
2023/09/05 10:29:41;;;;;;;1999.90;999.90;;;;;;;;;;5083104;28;20044;-79
2023/09/05 10:32:07;;;;;;;1999.90;999.90;;;;;;;;;;5086405;28;20534;-83
2023/09/05 10:34:55;;;;;;;1999.90;999.90;;;;;;;;;;5085840;28;20047;-86
2023/09/05 10:37:24;;;;;;;1999.90;999.90;;;;;;;;;;5078830;28;20451;-82
2023/09/05 10:39:51;;;;;;;1999.90;999.90;;;;;;;;;;5076953;28;20054;-86
2023/09/05 10:42:18;;;;;;;1999.90;999.90;;;;;;;;;;5086026;28;20056;-81
2023/09/05 10:44:47;;;;;;;1999.90;999.90;;;;;;;;;;5084699;28;20467;-81
2023/09/05 10:47:27;;;;;;;1999.90;999.90;;;;;;;;;;5086961;28;20037;-81
2023/09/05 10:50:00;;;;;;;1999.90;999.90;;;;;;;;;;5080597;28;20044;-79
2023/09/05 10:52:29;;;;;;;1999.90;999.90;;;;;;;;;;5079423;28;20052;-83
2023/09/05 10:54:56;;;;;;;1999.90;999.90;;;;;;;;;;5078845;28;20045;-82
2023/09/05 10:57:38;;;;;;;1999.90;999.90;;;;;;;;;;5083725;28;20055;-82
2023/09/05 11:00:37;;;;;;;1999.90;999.90;;;;;;;;;;5085688;28;20041;-82
2023/09/05 11:03:09;;;;;;;1999.90;999.90;;;;;;;;;;5079660;28;20105;-82
2023/09/05 11:05:40;;;;;;;1999.90;999.90;;;;;;;;;;5083054;28;20477;-82
2023/09/05 11:08:19;;;;;;;1999.90;999.90;;;;;;;;;;5084387;28;20109;-81
2023/09/05 11:10:46;;;;;;;1999.90;999.90;;;;;;;;;;5083457;28;20688;-83
2023/09/05 11:13:14;;;;;;;1999.90;999.90;;;;;;;;;;5081921;28;20041;-81
2023/09/05 11:15:44;;;;;;;1999.90;999.90;;;;;;;;;;5087344;28;20051;-82
2023/09/05 11:18:12;;;;;;;1999.90;999.90;;;;;;;;;;5084422;28;20131;-82
2023/09/05 11:20:39;;;;;;;1999.90;999.90;;;;;;;;;;5081517;28;20131;-84
2023/09/05 11:23:13;;;;;;;1999.90;999.90;;;;;;;;;;5077862;28;20078;-83
2023/09/05 11:25:43;;;;;;;1999.90;999.90;;;;;;;;;;5086509;28;20413;-82
2023/09/05 11:28:10;;;;;;;1999.90;999.90;;;;;;;;;;5088687;28;20079;-82
2023/09/05 11:30:37;;;;;;;1999.90;999.90;;;;;;;;;;5083215;28;20498;-81
2023/09/05 11:33:10;;;;;;;1999.90;999.90;;;;;;;;;;5085403;28;20044;-82
2023/09/05 11:35:38;;;;;;;1999.90;999.90;;;;;;;;;;5082943;28;20057;-82
2023/09/05 11:38:05;;;;;;;1999.90;999.90;;;;;;;;;;5083671;28;20090;-82
2023/09/05 11:40:31;;;;;;;1999.90;999.90;;;;;;;;;;5079726;28;20053;-82
2023/09/05 11:43:06;;;;;;;1999.90;999.90;;;;;;;;;;5087905;28;20063;-83
2023/09/05 11:45:33;;;;;;;1999.90;999.90;;;;;;;;;;5085662;28;20127;-83
2023/09/05 11:48:00;;;;;;;1999.90;999.90;;;;;;;;;;5087157;28;20053;-82
2023/09/05 11:50:28;;;;;;;1999.90;999.90;;;;;;;;;;5085690;28;20044;-85
2023/09/05 11:52:55;;;;;;;1999.90;999.90;;;;;;;;;;5081169;28;20036;-82
2023/09/05 11:55:23;;;;;;;1999.90;999.90;;;;;;;;;;5083952;28;20102;-83
2023/09/05 11:57:52;;;;;;;1999.90;999.90;;;;;;;;;;5080194;28;20552;-82
2023/09/05 12:00:19;;;;;;;1999.90;999.90;;;;;;;;;;5085985;28;20102;-81
2023/09/05 12:02:46;;;;;;;1999.90;999.90;;;;;;;;;;5081743;28;20071;-81
2023/09/05 12:05:14;;;;;;;1999.90;999.90;;;;;;;;;;5083021;28;20048;-83
2023/09/05 12:07:41;;;;;;;1999.90;999.90;;;;;;;;;;5084191;28;20044;-82
2023/09/05 12:10:09;;;;;;;1999.90;999.90;;;;;;;;;;5081948;28;20060;-83
2023/09/05 12:12:36;;;;;;;1999.90;999.90;;;;;;;;;;5085493;28;20044;-81
2023/09/05 12:15:04;;;;;;;1999.90;999.90;;;;;;;;;;5085392;28;20048;-83
2023/09/05 12:17:30;;;;;;;1999.90;999.90;;;;;;;;;;5079571;28;20079;-81
2023/09/05 12:19:58;;;;;;;1999.90;999.90;;;;;;;;;;5082915;28;20052;-82
2023/09/05 12:22:31;;;;;;;1999.90;999.90;;;;;;;;;;5081037;28;20055;-83
2023/09/05 12:25:14;;;;;;;1999.90;999.90;;;;;;;;;;5081485;28;20056;-81
2023/09/05 12:27:42;;;;;;;1999.90;999.90;;;;;;;;;;5082741;28;20098;-81
2023/09/05 12:30:10;;;;;;;1999.90;999.90;;;;;;;;;;5087180;28;20085;-81
2023/09/05 12:32:37;;;;;;;1999.90;999.90;;;;;;;;;;5081005;28;20475;-79
2023/09/05 12:35:04;;;;;;;1999.90;999.90;;;;;;;;;;5081180;28;20049;-81
2023/09/05 12:37:31;;;;;;;1999.90;999.90;;;;;;;;;;5081010;28;20044;-80
2023/09/05 12:39:57;;;;;;;1999.90;999.90;;;;;;;;;;5077740;28;20048;-82
2023/09/05 12:42:25;;;;;;;1999.90;999.90;;;;;;;;;;5078950;28;20488;-82
2023/09/05 12:44:53;;;;;;;1999.90;999.90;;;;;;;;;;5079912;28;20074;-83
2023/09/05 12:47:20;;;;;;;1999.90;999.90;;;;;;;;;;5080951;28;20055;-83
2023/09/05 12:49:47;;;;;;;1999.90;999.90;;;;;;;;;;5084848;28;20045;-79
2023/09/05 12:52:22;;;;;;;1999.90;999.90;;;;;;;;;;5082041;28;20040;-81
2023/09/05 12:54:49;;;;;;;1999.90;999.90;;;;;;;;;;5077283;28;20399;-80
2023/09/05 12:57:16;;;;;;;1999.90;999.90;;;;;;;;;;5080009;28;20127;-79
2023/09/05 12:59:44;;;;;;;1999.90;999.90;;;;;;;;;;5084571;28;20068;-82
2023/09/05 13:02:12;;;;;;;1999.90;999.90;;;;;;;;;;5080321;28;20048;-82
2023/09/05 13:04:38;;;;;;;1999.90;999.90;;;;;;;;;;5081787;28;20052;-81
2023/09/05 13:07:05;;;;;;;1999.90;999.90;;;;;;;;;;5081218;28;20047;-83
2023/09/05 13:09:31;;;;;;;1999.90;999.90;;;;;;;;;;5078074;28;20127;-80
2023/09/05 13:11:58;;;;;;;1999.90;999.90;;;;;;;;;;5079668;28;20040;-79
2023/09/05 13:14:25;;;;;;;1999.90;999.90;;;;;;;;;;5078258;28;20044;-80
2023/09/05 13:16:53;;;;;;;1999.90;999.90;;;;;;;;;;5086108;28;20043;-80
2023/09/05 13:19:19;;;;;;;1999.90;999.90;;;;;;;;;;5080774;28;20469;-80
2023/09/05 13:21:46;;;;;;;1999.90;999.90;;;;;;;;;;5081941;28;20127;-83
2023/09/05 13:24:12;;;;;;;1999.90;999.90;;;;;;;;;;5077900;28;20416;-81
2023/09/05 13:26:39;;;;;;;1999.90;999.90;;;;;;;;;;5078021;28;20055;-81
2023/09/05 13:29:06;;;;;;;1999.90;999.90;;;;;;;;;;5086883;28;20055;-83
2023/09/05 13:31:32;;;;;;;1999.90;999.90;;;;;;;;;;5084620;28;20480;-81
2023/09/05 13:34:00;;;;;;;1999.90;999.90;;;;;;;;;;5077917;28;20044;-81
2023/09/05 13:36:27;;;;;;;1999.90;999.90;;;;;;;;;;5081823;28;20044;-81
2023/09/05 13:38:53;;;;;;;1999.90;999.90;;;;;;;;;;5083120;28;20041;-81
2023/09/05 13:41:20;;;;;;;1999.90;999.90;;;;;;;;;;5083861;28;20392;-80
2023/09/05 13:43:46;;;;;;;1999.90;999.90;;;;;;;;;;5084759;28;20051;-81
2023/09/05 13:46:13;;;;;;;1999.90;999.90;;;;;;;;;;5078689;28;20040;-82
2023/09/05 13:48:40;;;;;;;1999.90;999.90;;;;;;;;;;5080430;28;20045;-82
2023/09/05 13:51:08;;;;;;;1999.90;999.90;;;;;;;;;;5081159;28;20396;-82
2023/09/05 13:53:35;;;;;;;1999.90;999.90;;;;;;;;;;5081395;28;20048;-81
2023/09/05 13:56:02;;;;;;;1999.90;999.90;;;;;;;;;;5082830;28;20053;-83
2023/09/05 13:58:28;;;;;;;1999.90;999.90;;;;;;;;;;5084443;28;20079;-80
2023/09/05 14:00:55;;;;;;;1999.90;999.90;;;;;;;;;;5083143;28;20046;-84
2023/09/05 14:03:22;;;;;;;1999.90;999.90;;;;;;;;;;5085202;28;20070;-81
2023/09/05 14:05:48;;;;;;;1999.90;999.90;;;;;;;;;;5077478;28;20072;-80
2023/09/05 14:08:16;;;;;;;1999.90;999.90;;;;;;;;;;5080258;28;20045;-84
2023/09/05 14:10:46;;;;;;;1999.90;999.90;;;;;;;;;;5078322;28;20062;-80
2023/09/05 14:13:12;;;;;;;1999.90;999.90;;;;;;;;;;5081447;28;20139;-81